createdAt,value
2023-12-29T00:01:31.622Z,1.80
2023-12-29T00:04:17.319Z,1.87
2023-12-29T00:07:03.631Z,1.90
2023-12-29T00:09:48.920Z,1.83
2023-12-29T00:12:34.989Z,1.83
2023-12-29T00:15:20.286Z,1.90
2023-12-29T00:18:05.896Z,2.00
2023-12-29T00:21:05.917Z,1.77
2023-12-29T00:23:53.139Z,1.77
2023-12-29T00:26:38.585Z,1.90
2023-12-29T00:29:24.009Z,1.60
2023-12-29T00:32:09.459Z,1.60
2023-12-29T00:34:54.811Z,1.73
2023-12-29T00:37:41.098Z,1.80
2023-12-29T00:40:26.361Z,1.70
2023-12-29T00:43:11.721Z,1.80
2023-12-29T00:45:56.990Z,1.53
2023-12-29T00:48:42.257Z,1.70
2023-12-29T00:51:27.863Z,1.60
2023-12-29T00:54:13.186Z,1.40
2023-12-29T00:56:58.899Z,1.50
2023-12-29T00:59:45.152Z,1.40
2023-12-29T01:02:30.143Z,1.40
2023-12-29T01:05:18.767Z,1.43
2023-12-29T01:08:04.663Z,1.60
2023-12-29T01:10:49.646Z,1.57
2023-12-29T01:13:35.196Z,1.40
2023-12-29T01:16:20.597Z,1.40
2023-12-29T01:19:05.777Z,1.30
2023-12-29T01:21:51.154Z,1.23
2023-12-29T01:24:43.014Z,1.50
2023-12-29T01:27:31.762Z,1.10
2023-12-29T01:30:17.516Z,1.10
2023-12-29T01:33:03.282Z,1.00
2023-12-29T01:35:49.119Z,1.27
2023-12-29T01:38:34.487Z,1.47
2023-12-29T01:41:23.699Z,1.17
2023-12-29T01:44:23.631Z,1.30
2023-12-29T01:47:16.747Z,1.20
2023-12-29T01:50:02.089Z,1.10
2023-12-29T01:52:49.913Z,1.30
2023-12-29T01:55:35.142Z,1.30
2023-12-29T01:58:20.630Z,1.10
2023-12-29T02:01:08.029Z,1.07
2023-12-29T02:03:53.464Z,1.10
2023-12-29T02:06:40.004Z,1.07
2023-12-29T02:09:25.258Z,1.10
2023-12-29T02:12:10.998Z,0.93
2023-12-29T02:14:56.760Z,1.20
2023-12-29T02:17:52.190Z,1.03
2023-12-29T02:20:37.667Z,1.00
2023-12-29T02:23:23.199Z,0.93
2023-12-29T02:26:11.311Z,1.10
2023-12-29T02:29:03.339Z,1.10
2023-12-29T02:31:54.162Z,0.77
2023-12-29T02:34:41.747Z,1.10
2023-12-29T02:37:29.193Z,1.10
2023-12-29T02:40:16.374Z,1.30
2023-12-29T02:43:01.827Z,0.73
2023-12-29T02:45:47.457Z,1.03
2023-12-29T02:48:32.991Z,0.87
2023-12-29T02:51:18.065Z,0.70
2023-12-29T02:54:04.170Z,1.00
2023-12-29T02:56:49.417Z,1.17
2023-12-29T02:59:34.707Z,1.10
2023-12-29T03:02:20.503Z,1.30
2023-12-29T03:05:07.538Z,1.17
2023-12-29T03:07:53.425Z,0.90
2023-12-29T03:10:38.416Z,0.83
2023-12-29T03:13:23.772Z,0.90
2023-12-29T03:16:09.086Z,0.80
2023-12-29T03:18:54.276Z,0.60
2023-12-29T03:21:39.910Z,0.90
2023-12-29T03:24:25.175Z,0.73
2023-12-29T03:27:10.924Z,0.70
2023-12-29T03:29:56.152Z,0.67
2023-12-29T03:32:41.562Z,0.87
2023-12-29T03:35:26.931Z,0.93
2023-12-29T03:38:12.244Z,0.90
2023-12-29T03:40:58.716Z,0.77
2023-12-29T03:43:44.069Z,0.80
2023-12-29T03:46:29.863Z,0.80
2023-12-29T03:49:17.235Z,0.80
2023-12-29T03:52:02.844Z,1.00
2023-12-29T03:54:48.251Z,0.70
2023-12-29T03:57:33.636Z,0.70
2023-12-29T04:00:19.155Z,0.87
2023-12-29T04:03:04.833Z,0.70
2023-12-29T04:05:50.529Z,0.80
2023-12-29T04:08:36.937Z,0.67
2023-12-29T04:11:22.433Z,0.80
2023-12-29T04:14:09.720Z,0.67
2023-12-29T04:16:55.352Z,0.93
2023-12-29T04:19:44.033Z,0.93
2023-12-29T04:22:29.293Z,0.67
2023-12-29T04:25:14.757Z,0.97
2023-12-29T04:28:00.683Z,0.73
2023-12-29T04:30:46.103Z,0.63
2023-12-29T04:33:31.590Z,0.63
2023-12-29T04:36:17.237Z,0.90
2023-12-29T04:39:04.670Z,0.80
2023-12-29T04:41:50.094Z,0.70
2023-12-29T04:44:35.563Z,0.80
2023-12-29T04:47:20.959Z,0.70
2023-12-29T04:50:07.218Z,0.60
2023-12-29T04:52:52.804Z,0.83
2023-12-29T04:55:38.096Z,0.60
2023-12-29T04:58:23.882Z,0.73
2023-12-29T05:01:09.586Z,0.70
2023-12-29T05:03:55.263Z,0.73
2023-12-29T05:06:40.566Z,0.70
2023-12-29T05:09:25.817Z,0.60
2023-12-29T05:12:10.993Z,0.60
2023-12-29T05:14:56.443Z,0.60
2023-12-29T05:17:41.707Z,0.80
2023-12-29T05:20:26.982Z,0.60
2023-12-29T05:23:12.057Z,0.50
2023-12-29T05:25:57.536Z,0.70
2023-12-29T05:28:42.936Z,0.70
2023-12-29T05:31:28.320Z,0.57
2023-12-29T05:34:14.131Z,0.53
2023-12-29T05:36:59.654Z,0.70
2023-12-29T05:39:45.376Z,0.73
2023-12-29T05:42:31.441Z,0.70
2023-12-29T05:45:18.543Z,0.70
2023-12-29T05:48:04.248Z,0.50
2023-12-29T05:50:50.398Z,0.70
2023-12-29T05:53:36.272Z,0.60
2023-12-29T05:56:22.694Z,0.80
2023-12-29T05:59:08.180Z,0.77
2023-12-29T06:01:53.594Z,0.60
2023-12-29T06:04:38.871Z,0.60
2023-12-29T06:07:24.226Z,0.60
2023-12-29T06:10:10.724Z,0.50
2023-12-29T06:12:56.092Z,1.00
2023-12-29T06:15:41.549Z,0.80
2023-12-29T06:18:27.220Z,0.60
2023-12-29T06:21:12.868Z,0.63
2023-12-29T06:23:58.467Z,0.67
2023-12-29T06:26:45.487Z,0.60
2023-12-29T06:29:30.902Z,0.70
2023-12-29T06:32:16.465Z,0.50
2023-12-29T06:35:01.715Z,0.50
2023-12-29T06:37:47.584Z,0.90
2023-12-29T06:40:33.320Z,0.70
2023-12-29T06:43:18.622Z,0.60
2023-12-29T06:46:05.536Z,0.70
2023-12-29T06:48:51.019Z,0.73
2023-12-29T06:51:42.239Z,0.70
2023-12-29T06:54:27.775Z,0.70
2023-12-29T06:57:15.655Z,0.60
2023-12-29T07:00:00.887Z,0.50
2023-12-29T07:02:46.210Z,0.70
2023-12-29T07:05:31.560Z,0.63
2023-12-29T07:08:16.941Z,0.60
2023-12-29T07:11:02.446Z,0.60
2023-12-29T07:13:47.661Z,0.63
2023-12-29T07:16:32.917Z,0.60
2023-12-29T07:19:18.315Z,0.80
2023-12-29T07:22:06.213Z,0.70
2023-12-29T07:24:51.727Z,0.60
2023-12-29T07:27:36.971Z,0.77
2023-12-29T07:30:22.503Z,0.77
2023-12-29T07:33:08.057Z,0.60
2023-12-29T07:35:53.572Z,0.60
2023-12-29T07:38:39.169Z,0.80
2023-12-29T07:41:24.292Z,0.70
2023-12-29T07:44:12.443Z,0.50
2023-12-29T07:47:00.867Z,0.50
2023-12-29T07:49:46.561Z,0.53
2023-12-29T07:52:32.154Z,0.60
2023-12-29T07:55:17.888Z,0.70
2023-12-29T07:58:03.816Z,0.70
2023-12-29T08:00:49.614Z,0.50
2023-12-29T08:03:34.890Z,0.60
2023-12-29T08:06:20.321Z,0.63
2023-12-29T08:09:05.701Z,0.60
2023-12-29T08:11:51.116Z,0.60
2023-12-29T08:14:36.448Z,0.90
2023-12-29T08:17:21.637Z,0.80
2023-12-29T08:20:07.610Z,0.50
2023-12-29T08:22:53.435Z,0.80
2023-12-29T08:25:38.780Z,0.50
2023-12-29T08:28:24.278Z,0.50
2023-12-29T08:31:09.805Z,0.57
2023-12-29T08:33:55.149Z,0.70
2023-12-29T08:36:40.386Z,0.80
2023-12-29T08:39:25.722Z,0.80
2023-12-29T08:42:11.215Z,0.73
2023-12-29T08:44:56.724Z,0.63
2023-12-29T08:47:42.116Z,0.50
2023-12-29T08:50:27.314Z,0.80
2023-12-29T08:53:12.487Z,0.60
2023-12-29T08:55:57.937Z,0.70
2023-12-29T08:58:43.267Z,0.67
2023-12-29T09:01:28.670Z,0.67
2023-12-29T09:04:13.964Z,0.63
2023-12-29T09:06:59.257Z,0.60
2023-12-29T09:09:44.659Z,0.80
2023-12-29T09:12:30.022Z,0.80
2023-12-29T09:15:15.485Z,0.70
2023-12-29T09:18:01.134Z,0.80
2023-12-29T09:20:47.299Z,0.80
2023-12-29T09:23:33.425Z,0.80
2023-12-29T09:26:18.808Z,0.80
2023-12-29T09:29:04.204Z,0.60
2023-12-29T09:31:52.255Z,0.70
2023-12-29T09:34:37.648Z,1.10
2023-12-29T09:37:23.504Z,0.90
2023-12-29T09:40:10.657Z,0.80
2023-12-29T09:42:56.487Z,1.07
2023-12-29T09:45:45.890Z,1.00
2023-12-29T09:48:33.041Z,0.83
2023-12-29T09:51:18.804Z,0.90
2023-12-29T09:54:04.617Z,1.40
2023-12-29T09:56:50.840Z,1.10
2023-12-29T09:59:39.591Z,1.30
2023-12-29T10:02:25.199Z,1.50
2023-12-29T10:05:10.776Z,1.30
2023-12-29T10:08:01.070Z,1.03
2023-12-29T10:10:50.904Z,1.00
2023-12-29T10:13:38.028Z,1.27
2023-12-29T10:16:42.952Z,1.43
2023-12-29T10:19:38.357Z,1.00
2023-12-29T10:22:33.031Z,0.70
2023-12-29T10:25:18.750Z,1.10
2023-12-29T10:28:04.606Z,1.30
2023-12-29T10:30:50.709Z,0.90
2023-12-29T10:33:36.118Z,1.10
2023-12-29T10:36:21.290Z,1.37
2023-12-29T10:39:08.481Z,0.83
2023-12-29T10:42:08.587Z,0.93
2023-12-29T10:45:08.191Z,0.80
2023-12-29T10:47:54.224Z,0.90
2023-12-29T10:50:46.592Z,0.90
2023-12-29T10:53:34.582Z,0.80
2023-12-29T10:56:22.002Z,0.70
2023-12-29T10:59:08.027Z,1.00
2023-12-29T11:01:54.832Z,0.87
2023-12-29T11:04:42.574Z,1.00
2023-12-29T11:07:37.727Z,0.80
2023-12-29T11:10:23.618Z,0.70
2023-12-29T11:13:11.741Z,0.73
2023-12-29T11:15:59.065Z,1.00
2023-12-29T11:18:45.740Z,0.90
2023-12-29T11:21:31.886Z,1.10
2023-12-29T11:24:23.092Z,0.70
2023-12-29T11:27:14.014Z,0.70
2023-12-29T11:30:01.096Z,0.70
2023-12-29T11:32:50.611Z,0.70
2023-12-29T11:35:45.768Z,0.80
2023-12-29T11:38:50.586Z,0.70
2023-12-29T11:41:55.662Z,0.43
2023-12-29T11:44:41.256Z,0.80
2023-12-29T11:47:37.799Z,0.70
2023-12-29T11:50:30.360Z,0.60
2023-12-29T11:53:33.700Z,0.67
2023-12-29T11:56:18.703Z,0.90
2023-12-29T11:59:18.308Z,0.73
2023-12-29T12:02:07.252Z,0.70
2023-12-29T12:04:52.769Z,0.70
2023-12-29T12:07:40.780Z,0.70
2023-12-29T12:10:32.923Z,0.60
2023-12-29T12:13:43.936Z,0.83
2023-12-29T12:16:47.393Z,1.10
2023-12-29T12:19:36.197Z,0.67
2023-12-29T12:22:23.144Z,0.60
2023-12-29T12:25:08.997Z,0.67
2023-12-29T12:27:54.320Z,0.83
2023-12-29T12:30:39.793Z,0.80
2023-12-29T12:33:26.661Z,1.00
2023-12-29T12:36:12.045Z,0.77
2023-12-29T12:38:59.183Z,0.90
2023-12-29T12:41:45.341Z,0.80
2023-12-29T12:44:31.154Z,0.80
2023-12-29T12:47:20.122Z,1.00
2023-12-29T12:50:11.087Z,0.83
2023-12-29T12:52:59.317Z,0.80
2023-12-29T12:55:44.714Z,0.97
2023-12-29T12:58:31.563Z,0.90
2023-12-29T13:01:17.012Z,0.80
2023-12-29T13:04:04.811Z,1.13
2023-12-29T13:06:52.433Z,0.77
2023-12-29T13:09:38.262Z,1.00
2023-12-29T13:12:23.680Z,0.80
2023-12-29T13:15:11.189Z,0.97
2023-12-29T13:17:56.856Z,1.03
2023-12-29T13:20:47.870Z,0.70
2023-12-29T13:23:34.077Z,1.10
2023-12-29T13:26:19.793Z,1.00
2023-12-29T13:29:05.434Z,0.77
2023-12-29T13:31:53.558Z,0.83
2023-12-29T13:35:05.289Z,1.17
2023-12-29T13:38:27.265Z,0.50
2023-12-29T13:41:13.889Z,0.87
2023-12-29T13:44:01.272Z,0.90
2023-12-29T13:46:46.493Z,0.97
2023-12-29T13:49:37.461Z,0.83
2023-12-29T13:52:23.167Z,0.80
2023-12-29T13:55:09.008Z,0.67
2023-12-29T13:57:55.109Z,1.03
2023-12-29T14:00:41.991Z,0.90
2023-12-29T14:03:45.089Z,0.80
2023-12-29T14:06:39.761Z,0.80
2023-12-29T14:09:24.961Z,0.90
2023-12-29T14:12:10.832Z,0.50
2023-12-29T14:15:03.762Z,0.63
2023-12-29T14:17:49.453Z,0.60
2023-12-29T14:20:37.486Z,0.70
2023-12-29T14:23:23.111Z,0.90
2023-12-29T14:26:09.343Z,0.80
2023-12-29T14:29:19.639Z,0.60
2023-12-29T14:32:05.329Z,0.80
2023-12-29T14:34:56.138Z,0.80
2023-12-29T14:37:41.487Z,0.90
2023-12-29T14:40:27.602Z,0.80
2023-12-29T14:43:12.599Z,0.90
2023-12-29T14:45:57.800Z,0.70
2023-12-29T14:48:43.266Z,0.60
2023-12-29T14:51:29.492Z,0.77
2023-12-29T14:54:15.829Z,0.63
2023-12-29T14:57:07.925Z,0.80
2023-12-29T14:59:57.638Z,0.70
2023-12-29T15:02:44.098Z,0.80
2023-12-29T15:05:29.641Z,0.60
2023-12-29T15:08:14.993Z,0.80
2023-12-29T15:11:00.441Z,0.80
2023-12-29T15:13:45.572Z,0.60
2023-12-29T15:16:31.046Z,0.70
2023-12-29T15:19:16.388Z,0.80
2023-12-29T15:22:02.119Z,0.70
2023-12-29T15:24:47.842Z,0.77
2023-12-29T15:27:33.028Z,0.80
2023-12-29T15:30:18.630Z,0.80
2023-12-29T15:33:04.155Z,0.80
2023-12-29T15:35:50.652Z,0.70
2023-12-29T15:38:36.309Z,0.90
2023-12-29T15:41:22.104Z,0.97
2023-12-29T15:44:09.260Z,0.90
2023-12-29T15:46:56.102Z,0.90
2023-12-29T15:49:41.219Z,0.97
2023-12-29T15:52:29.349Z,0.70
2023-12-29T15:55:14.672Z,0.90
2023-12-29T15:58:01.258Z,0.53
2023-12-29T16:00:46.655Z,0.80
2023-12-29T16:03:35.167Z,0.90
2023-12-29T16:06:21.753Z,0.70
2023-12-29T16:09:06.816Z,0.70
2023-12-29T16:11:55.653Z,0.60
2023-12-29T16:14:41.714Z,0.53
2023-12-29T16:17:27.623Z,1.07
2023-12-29T16:20:12.934Z,1.00
2023-12-29T16:22:58.159Z,0.97
2023-12-29T16:25:43.626Z,0.80
2023-12-29T16:28:28.947Z,0.87
2023-12-29T16:31:14.579Z,0.97
2023-12-29T16:33:59.853Z,0.70
2023-12-29T16:36:57.516Z,0.87
2023-12-29T16:39:43.511Z,0.67
2023-12-29T16:42:28.878Z,0.80
2023-12-29T16:45:14.309Z,0.97
2023-12-29T16:48:01.040Z,0.80
2023-12-29T16:50:46.731Z,0.73
2023-12-29T16:53:32.226Z,0.90
2023-12-29T16:56:17.785Z,0.70
2023-12-29T16:59:03.688Z,0.90
2023-12-29T17:01:49.317Z,0.47
2023-12-29T17:04:36.423Z,0.80
2023-12-29T17:07:21.804Z,0.80
2023-12-29T17:10:07.830Z,0.77
2023-12-29T17:12:53.937Z,0.80
2023-12-29T17:15:39.225Z,0.70
2023-12-29T17:18:24.706Z,0.70
2023-12-29T17:21:11.384Z,0.60
2023-12-29T17:23:56.370Z,0.70
2023-12-29T17:26:41.567Z,0.90
2023-12-29T17:29:27.358Z,0.73
2023-12-29T17:32:12.766Z,0.87
2023-12-29T17:34:58.399Z,1.07
2023-12-29T17:37:43.653Z,0.93
2023-12-29T17:40:29.110Z,0.63
2023-12-29T17:43:14.410Z,0.73
2023-12-29T17:46:06.572Z,0.80
2023-12-29T17:48:52.024Z,0.70
2023-12-29T17:51:37.136Z,0.70
2023-12-29T17:54:22.427Z,0.77
2023-12-29T17:57:09.459Z,0.77
2023-12-29T17:59:54.854Z,0.60
2023-12-29T18:02:40.315Z,0.77
2023-12-29T18:05:26.112Z,0.90
2023-12-29T18:08:12.501Z,0.67
2023-12-29T18:10:57.637Z,0.70
2023-12-29T18:13:42.883Z,0.70
2023-12-29T18:16:29.828Z,0.63
2023-12-29T18:19:17.118Z,0.97
2023-12-29T18:22:03.957Z,0.80
2023-12-29T18:24:49.794Z,0.70
2023-12-29T18:27:35.214Z,0.80
2023-12-29T18:30:20.691Z,0.90
2023-12-29T18:33:09.478Z,0.80
2023-12-29T18:35:55.925Z,0.80
2023-12-29T18:38:41.038Z,0.90
2023-12-29T18:41:26.363Z,0.90
2023-12-29T18:44:11.742Z,0.80
2023-12-29T18:46:57.050Z,0.80
2023-12-29T18:49:42.668Z,1.07
2023-12-29T18:52:28.407Z,0.70
2023-12-29T18:55:13.792Z,1.00
2023-12-29T18:57:59.202Z,0.90
2023-12-29T19:00:44.453Z,0.87
2023-12-29T19:03:30.932Z,0.80
2023-12-29T19:06:26.621Z,0.60
2023-12-29T19:09:12.669Z,0.93
2023-12-29T19:11:58.194Z,0.80
2023-12-29T19:14:47.143Z,0.80
2023-12-29T19:17:33.080Z,0.67
2023-12-29T19:20:18.369Z,0.90
2023-12-29T19:23:04.880Z,0.73
2023-12-29T19:25:50.231Z,1.23
2023-12-29T19:28:39.418Z,0.80
2023-12-29T19:31:26.565Z,0.93
2023-12-29T19:34:12.987Z,0.80
2023-12-29T19:36:59.836Z,0.70
2023-12-29T19:39:45.015Z,0.70
2023-12-29T19:42:30.344Z,0.67
2023-12-29T19:45:17.418Z,0.87
2023-12-29T19:48:03.967Z,0.70
2023-12-29T19:50:49.453Z,0.50
2023-12-29T19:53:35.166Z,1.00
2023-12-29T19:56:28.363Z,0.80
2023-12-29T19:59:14.279Z,0.87
2023-12-29T20:01:59.662Z,0.77
2023-12-29T20:04:45.014Z,0.73
2023-12-29T20:07:30.221Z,0.80
2023-12-29T20:10:16.910Z,0.63
2023-12-29T20:13:02.724Z,0.87
2023-12-29T20:15:48.597Z,1.03
2023-12-29T20:18:35.876Z,1.00
2023-12-29T20:21:26.224Z,1.30
2023-12-29T20:24:11.532Z,1.10
2023-12-29T20:26:56.685Z,1.10
2023-12-29T20:29:42.105Z,1.10
2023-12-29T20:32:27.553Z,1.23
2023-12-29T20:35:14.989Z,1.27
2023-12-29T20:38:00.442Z,1.40
2023-12-29T20:40:45.701Z,1.33
2023-12-29T20:43:31.227Z,1.13
2023-12-29T20:46:16.538Z,1.47
2023-12-29T20:49:02.500Z,1.30
2023-12-29T20:51:48.753Z,1.40
2023-12-29T20:54:37.076Z,1.33
2023-12-29T20:57:24.987Z,1.67
2023-12-29T21:00:10.503Z,1.50
2023-12-29T21:02:55.726Z,1.50
2023-12-29T21:05:41.322Z,1.43
2023-12-29T21:08:26.788Z,1.33
2023-12-29T21:11:20.473Z,1.50
2023-12-29T21:14:06.131Z,1.33
2023-12-29T21:16:51.516Z,1.73
2023-12-29T21:19:36.845Z,1.50
2023-12-29T21:22:22.245Z,1.90
2023-12-29T21:25:07.823Z,1.30
2023-12-29T21:27:53.458Z,2.03
2023-12-29T21:30:38.892Z,1.67
2023-12-29T21:33:24.481Z,1.60
2023-12-29T21:36:22.844Z,1.17
2023-12-29T21:39:08.120Z,1.43
2023-12-29T21:41:57.795Z,1.40
2023-12-29T21:44:43.465Z,1.60
2023-12-29T21:47:29.234Z,1.53
2023-12-29T21:50:14.648Z,1.47
2023-12-29T21:53:00.903Z,1.30
2023-12-29T21:55:46.740Z,1.30
2023-12-29T21:58:32.313Z,1.50
2023-12-29T22:01:35.516Z,1.47
2023-12-29T22:04:22.760Z,1.50
2023-12-29T22:07:09.652Z,1.43
2023-12-29T22:09:54.899Z,1.60
2023-12-29T22:12:40.398Z,1.30
2023-12-29T22:15:25.960Z,1.23
2023-12-29T22:18:11.444Z,1.27
2023-12-29T22:20:56.821Z,1.60
2023-12-29T22:23:43.282Z,1.33
2023-12-29T22:26:28.562Z,1.63
2023-12-29T22:29:13.975Z,1.60
2023-12-29T22:31:59.481Z,1.10
2023-12-29T22:34:44.926Z,1.20
2023-12-29T22:37:30.290Z,1.50
2023-12-29T22:40:16.654Z,1.20
2023-12-29T22:43:02.353Z,1.20
2023-12-29T22:45:47.869Z,1.37
2023-12-29T22:48:33.568Z,1.13
2023-12-29T22:51:18.858Z,1.13
2023-12-29T22:54:04.310Z,0.83
2023-12-29T22:56:49.676Z,1.10
2023-12-29T22:59:36.756Z,1.23
2023-12-29T23:02:22.132Z,1.20
2023-12-29T23:05:07.983Z,1.20
2023-12-29T23:07:53.507Z,1.17
2023-12-29T23:10:38.848Z,1.03
2023-12-29T23:13:26.342Z,1.00
2023-12-29T23:16:11.673Z,1.07
2023-12-29T23:18:57.801Z,1.20
2023-12-29T23:21:43.566Z,1.00
2023-12-29T23:24:29.090Z,1.20
2023-12-29T23:27:15.323Z,1.00
2023-12-29T23:30:00.648Z,0.93
2023-12-29T23:32:47.064Z,1.10
2023-12-29T23:35:32.461Z,0.97
2023-12-29T23:38:19.144Z,0.80
2023-12-29T23:41:04.742Z,1.07
2023-12-29T23:43:50.084Z,0.93
2023-12-29T23:46:37.023Z,1.10
2023-12-29T23:49:22.420Z,1.23
2023-12-29T23:52:07.659Z,1.20
2023-12-29T23:54:53.036Z,0.73
2023-12-29T23:57:38.183Z,1.20
